createdAt,value
2022-12-23T00:01:46.405Z,0.88
2022-12-23T00:04:13.121Z,0.92
2022-12-23T00:06:39.845Z,0.92
2022-12-23T00:09:06.456Z,0.95
2022-12-23T00:11:33.081Z,0.91
2022-12-23T00:14:21.609Z,0.92
2022-12-23T00:16:50.756Z,0.94
2022-12-23T00:19:17.671Z,0.95
2022-12-23T00:21:44.316Z,0.97
2022-12-23T00:24:11.650Z,1.00
2022-12-23T00:26:38.818Z,0.93
2022-12-23T00:29:05.630Z,0.86
2022-12-23T00:31:32.363Z,0.83
2022-12-23T00:33:59.201Z,0.79
2022-12-23T00:36:30.153Z,0.82
2022-12-23T00:39:18.180Z,0.78
2022-12-23T00:42:03.856Z,0.83
2022-12-23T00:44:30.508Z,0.81
2022-12-23T00:46:57.289Z,0.83
2022-12-23T00:49:42.051Z,0.81
2022-12-23T00:52:15.552Z,0.90
2022-12-23T00:54:42.348Z,0.94
2022-12-23T00:57:09.107Z,0.92
2022-12-23T00:59:35.734Z,0.90
2022-12-23T01:02:21.030Z,0.89
2022-12-23T01:05:06.251Z,0.86
2022-12-23T01:07:32.851Z,0.80
2022-12-23T01:09:59.405Z,0.74
2022-12-23T01:12:26.009Z,0.74
2022-12-23T01:14:52.670Z,0.77
2022-12-23T01:17:19.414Z,0.88
2022-12-23T01:19:46.084Z,0.93
2022-12-23T01:22:12.707Z,0.89
2022-12-23T01:24:39.264Z,0.93
2022-12-23T01:27:05.838Z,0.92
2022-12-23T01:29:33.950Z,0.91
2022-12-23T01:32:00.617Z,0.96
2022-12-23T01:34:32.564Z,0.99
2022-12-23T01:37:02.908Z,0.97
2022-12-23T01:39:29.509Z,0.98
2022-12-23T01:42:14.739Z,1.03
2022-12-23T01:45:00.924Z,0.88
2022-12-23T01:47:49.551Z,0.81
2022-12-23T01:50:58.017Z,0.80
2022-12-23T01:53:29.930Z,0.82
2022-12-23T01:55:59.256Z,0.86
2022-12-23T01:58:25.806Z,0.83
2022-12-23T02:01:14.263Z,0.80
2022-12-23T02:03:44.344Z,0.77
2022-12-23T02:06:42.831Z,0.79
2022-12-23T02:09:20.664Z,0.82
2022-12-23T02:11:53.573Z,0.79
2022-12-23T02:15:11.687Z,0.79
2022-12-23T02:17:41.187Z,0.87
2022-12-23T02:20:34.213Z,0.86
2022-12-23T02:23:06.501Z,0.86
2022-12-23T02:25:48.340Z,0.89
2022-12-23T02:28:48.901Z,0.91
2022-12-23T02:31:29.858Z,0.90
2022-12-23T02:34:42.894Z,0.90
2022-12-23T02:37:18.711Z,0.96
2022-12-23T02:40:07.231Z,0.98
2022-12-23T02:42:59.972Z,0.98
2022-12-23T02:45:50.294Z,1.04
2022-12-23T02:48:32.079Z,1.08
2022-12-23T02:51:00.880Z,1.03
2022-12-23T02:53:39.781Z,1.06
2022-12-23T02:56:09.558Z,1.05
2022-12-23T02:58:42.922Z,1.05
2022-12-23T03:01:13.305Z,0.97
2022-12-23T03:03:41.806Z,0.94
2022-12-23T03:06:17.876Z,0.98
2022-12-23T03:08:45.722Z,1.00
2022-12-23T03:11:15.343Z,1.03
2022-12-23T03:13:41.937Z,0.97
2022-12-23T03:16:17.382Z,0.90
2022-12-23T03:19:08.084Z,0.88
2022-12-23T03:21:57.205Z,1.00
2022-12-23T03:24:37.730Z,1.05
2022-12-23T03:27:08.646Z,1.03
2022-12-23T03:29:35.200Z,1.04
2022-12-23T03:32:05.108Z,1.05
2022-12-23T03:34:37.799Z,1.10
2022-12-23T03:37:08.533Z,1.08
2022-12-23T03:39:45.656Z,1.11
2022-12-23T03:42:19.268Z,1.13
2022-12-23T03:45:19.315Z,1.16
2022-12-23T03:47:47.009Z,1.13
2022-12-23T03:50:17.487Z,1.14
2022-12-23T03:52:45.639Z,1.14
2022-12-23T03:55:20.461Z,1.09
2022-12-23T03:58:09.263Z,1.10
2022-12-23T04:00:42.565Z,1.12
2022-12-23T04:03:16.160Z,1.10
2022-12-23T04:05:50.117Z,1.11
2022-12-23T04:08:24.205Z,1.09
2022-12-23T04:10:51.364Z,1.10
2022-12-23T04:13:18.067Z,1.10
2022-12-23T04:15:45.076Z,1.08
2022-12-23T04:18:12.381Z,1.14
2022-12-23T04:20:39.117Z,1.11
2022-12-23T04:23:05.840Z,0.99
2022-12-23T04:25:32.536Z,1.02
2022-12-23T04:27:59.224Z,1.08
2022-12-23T04:30:31.517Z,1.11
2022-12-23T04:33:00.851Z,1.11
2022-12-23T04:35:27.438Z,1.11
2022-12-23T04:37:54.106Z,1.13
2022-12-23T04:40:20.699Z,1.19
2022-12-23T04:42:47.336Z,1.23
2022-12-23T04:45:14.095Z,1.25
2022-12-23T04:47:40.856Z,1.26
2022-12-23T04:50:08.503Z,1.31
2022-12-23T04:52:35.103Z,1.26
2022-12-23T04:55:01.736Z,1.21
2022-12-23T04:57:28.408Z,1.09
2022-12-23T04:59:55.076Z,1.03
2022-12-23T05:02:21.878Z,1.09
2022-12-23T05:04:48.596Z,1.10
2022-12-23T05:07:15.339Z,1.04
2022-12-23T05:09:41.987Z,1.03
2022-12-23T05:12:08.593Z,1.09
2022-12-23T05:14:35.217Z,1.10
2022-12-23T05:17:07.147Z,1.09
2022-12-23T05:19:34.241Z,1.12
2022-12-23T05:22:00.801Z,1.12
2022-12-23T05:24:27.383Z,1.11
2022-12-23T05:26:59.672Z,1.16
2022-12-23T05:29:27.304Z,1.13
2022-12-23T05:31:54.242Z,1.12
2022-12-23T05:34:21.120Z,1.14
2022-12-23T05:36:47.887Z,1.19
2022-12-23T05:39:14.728Z,1.19
2022-12-23T05:41:41.382Z,1.23
2022-12-23T05:44:10.752Z,1.23
2022-12-23T05:46:37.712Z,1.21
2022-12-23T05:49:04.475Z,1.21
2022-12-23T05:51:31.135Z,1.33
2022-12-23T05:53:58.087Z,1.38
2022-12-23T05:56:24.725Z,1.28
2022-12-23T05:58:51.372Z,1.35
2022-12-23T06:01:18.506Z,1.38
2022-12-23T06:03:45.264Z,1.28
2022-12-23T06:06:12.104Z,1.22
2022-12-23T06:08:38.907Z,1.22
2022-12-23T06:11:05.902Z,1.35
2022-12-23T06:13:32.580Z,1.38
2022-12-23T06:15:59.313Z,1.42
2022-12-23T06:18:26.005Z,1.49
2022-12-23T06:20:52.714Z,1.55
2022-12-23T06:23:19.314Z,1.54
2022-12-23T06:25:47.185Z,1.50
2022-12-23T06:28:13.841Z,1.55
2022-12-23T06:30:40.531Z,1.64
2022-12-23T06:33:07.152Z,1.80
2022-12-23T06:35:33.906Z,1.84
2022-12-23T06:38:01.087Z,1.79
2022-12-23T06:40:29.244Z,1.73
2022-12-23T06:42:56.112Z,1.81
2022-12-23T06:45:22.703Z,1.86
2022-12-23T06:47:49.406Z,1.93
2022-12-23T06:50:16.127Z,1.87
2022-12-23T06:52:42.818Z,1.63
2022-12-23T06:55:09.690Z,1.46
2022-12-23T06:57:36.741Z,1.42
2022-12-23T07:00:07.319Z,1.54
2022-12-23T07:02:34.201Z,1.62
2022-12-23T07:05:00.943Z,1.75
2022-12-23T07:07:27.628Z,1.79
2022-12-23T07:09:54.190Z,1.81
2022-12-23T07:12:20.889Z,1.74
2022-12-23T07:14:47.502Z,1.76
2022-12-23T07:17:14.280Z,1.83
2022-12-23T07:19:41.808Z,1.94
2022-12-23T07:22:10.191Z,2.01
2022-12-23T07:24:37.809Z,1.96
2022-12-23T07:27:04.831Z,1.99
2022-12-23T07:29:31.540Z,2.05
2022-12-23T07:31:59.066Z,2.11
2022-12-23T07:34:25.875Z,2.21
2022-12-23T07:36:52.763Z,2.18
2022-12-23T07:39:19.928Z,2.21
2022-12-23T07:41:46.653Z,2.25
2022-12-23T07:44:13.701Z,2.18
2022-12-23T07:46:41.583Z,2.22
2022-12-23T07:49:08.260Z,2.24
2022-12-23T07:51:34.857Z,2.24
2022-12-23T07:54:01.669Z,2.17
2022-12-23T07:56:28.320Z,2.11
2022-12-23T07:58:55.281Z,2.23
2022-12-23T08:01:22.668Z,2.36
2022-12-23T08:03:49.517Z,2.38
2022-12-23T08:06:18.448Z,2.45
2022-12-23T08:08:46.805Z,2.44
2022-12-23T08:11:15.194Z,2.39
2022-12-23T08:13:44.042Z,2.51
2022-12-23T08:16:11.510Z,2.43
2022-12-23T08:18:40.122Z,2.47
2022-12-23T08:21:14.967Z,2.49
2022-12-23T08:23:43.593Z,2.45
2022-12-23T08:26:13.021Z,2.51
2022-12-23T08:28:41.247Z,2.67
2022-12-23T08:31:10.444Z,2.73
2022-12-23T08:33:38.804Z,2.74
2022-12-23T08:36:07.717Z,2.66
2022-12-23T08:38:35.673Z,2.66
2022-12-23T08:41:02.556Z,2.74
2022-12-23T08:43:35.619Z,2.63
2022-12-23T08:46:03.440Z,2.62
2022-12-23T08:48:30.340Z,2.62
2022-12-23T08:50:57.049Z,2.68
2022-12-23T08:53:23.709Z,2.77
2022-12-23T08:55:50.303Z,2.88
2022-12-23T08:58:16.940Z,2.88
2022-12-23T09:00:43.578Z,2.92
2022-12-23T09:03:10.677Z,2.91
2022-12-23T09:05:41.560Z,2.93
2022-12-23T09:08:09.238Z,2.85
2022-12-23T09:10:47.335Z,2.90
2022-12-23T09:13:22.327Z,2.89
2022-12-23T09:15:53.721Z,2.93
2022-12-23T09:18:20.845Z,2.86
2022-12-23T09:20:48.672Z,2.81
2022-12-23T09:23:16.519Z,2.88
2022-12-23T09:25:43.150Z,2.97
2022-12-23T09:28:09.833Z,2.97
2022-12-23T09:30:39.467Z,3.00
2022-12-23T09:33:06.494Z,3.02
2022-12-23T09:35:36.466Z,3.07
2022-12-23T09:38:03.897Z,3.09
2022-12-23T09:40:33.541Z,3.04
2022-12-23T09:43:18.012Z,3.04
2022-12-23T09:46:04.775Z,3.11
2022-12-23T09:48:59.599Z,3.12
2022-12-23T09:51:28.160Z,3.10
2022-12-23T09:54:22.467Z,3.17
2022-12-23T09:57:23.739Z,3.16
2022-12-23T10:00:17.004Z,3.21
2022-12-23T10:03:14.401Z,3.27
2022-12-23T10:05:58.530Z,3.37
2022-12-23T10:08:33.655Z,3.41
2022-12-23T10:11:12.306Z,3.35
2022-12-23T10:13:44.290Z,3.32
2022-12-23T10:16:19.655Z,3.26
2022-12-23T10:18:48.427Z,3.37
2022-12-23T10:21:30.340Z,3.35
2022-12-23T10:23:56.945Z,3.34
2022-12-23T10:26:35.029Z,3.35
2022-12-23T10:29:34.486Z,3.41
2022-12-23T10:32:22.147Z,3.52
2022-12-23T10:34:51.768Z,3.31
2022-12-23T10:37:31.318Z,3.27
2022-12-23T10:40:11.883Z,3.38
2022-12-23T10:43:17.907Z,3.33
2022-12-23T10:46:07.871Z,3.20
2022-12-23T10:48:53.054Z,3.36
2022-12-23T10:51:43.901Z,3.42
2022-12-23T10:54:16.951Z,3.60
2022-12-23T10:56:46.334Z,3.59
2022-12-23T10:59:16.026Z,3.59
2022-12-23T11:01:47.756Z,3.69
2022-12-23T11:04:18.034Z,3.65
2022-12-23T11:07:10.572Z,3.76
2022-12-23T11:09:59.352Z,3.85
2022-12-23T11:12:42.227Z,3.89
2022-12-23T11:15:25.223Z,3.87
2022-12-23T11:18:19.099Z,3.92
2022-12-23T11:21:01.776Z,3.92
2022-12-23T11:23:32.308Z,4.02
2022-12-23T11:26:11.732Z,4.11
2022-12-23T11:28:40.955Z,4.14
2022-12-23T11:31:14.535Z,4.18
2022-12-23T11:33:49.288Z,4.15
2022-12-23T11:36:24.218Z,4.13
2022-12-23T11:39:02.409Z,4.16
2022-12-23T11:41:35.088Z,4.18
2022-12-23T11:44:04.518Z,4.18
2022-12-23T11:46:34.008Z,4.31
2022-12-23T11:49:05.673Z,4.46
2022-12-23T11:51:32.592Z,4.40
2022-12-23T11:54:01.648Z,4.28
2022-12-23T11:56:35.527Z,4.33
2022-12-23T11:59:29.208Z,4.33
2022-12-23T12:02:01.565Z,4.25
2022-12-23T12:04:33.007Z,4.27
2022-12-23T12:07:00.814Z,4.26
2022-12-23T12:09:30.885Z,4.40
2022-12-23T12:12:04.890Z,4.46
2022-12-23T12:14:43.437Z,4.42
2022-12-23T12:17:44.288Z,4.42
2022-12-23T12:20:24.736Z,4.39
2022-12-23T12:22:59.583Z,4.27
2022-12-23T12:25:39.550Z,4.27
2022-12-23T12:28:13.827Z,4.25
2022-12-23T12:31:12.916Z,4.46
2022-12-23T12:34:11.849Z,4.56
2022-12-23T12:36:52.835Z,4.46
2022-12-23T12:39:36.350Z,4.49
2022-12-23T12:42:31.565Z,4.50
2022-12-23T12:45:22.245Z,4.49
2022-12-23T12:48:18.249Z,4.55
2022-12-23T12:50:59.791Z,4.58
2022-12-23T12:53:28.343Z,4.57
2022-12-23T12:56:15.817Z,4.52
2022-12-23T12:58:44.698Z,4.60
2022-12-23T13:01:17.287Z,4.59
2022-12-23T13:03:47.060Z,4.47
2022-12-23T13:06:28.820Z,4.42
2022-12-23T13:09:13.908Z,4.47
2022-12-23T13:11:55.157Z,4.28
2022-12-23T13:14:21.734Z,4.24
2022-12-23T13:17:03.764Z,4.30
2022-12-23T13:19:51.450Z,4.37
2022-12-23T13:22:28.071Z,4.45
2022-12-23T13:25:12.900Z,4.24
2022-12-23T13:27:45.625Z,4.14
2022-12-23T13:31:05.019Z,4.22
2022-12-23T13:33:48.679Z,4.20
2022-12-23T13:36:45.555Z,4.28
2022-12-23T13:39:56.123Z,4.28
2022-12-23T13:42:52.790Z,4.36
2022-12-23T13:45:42.835Z,4.37
2022-12-23T13:48:18.044Z,4.26
2022-12-23T13:50:55.405Z,4.23
2022-12-23T13:54:05.095Z,4.15
2022-12-23T13:57:08.960Z,4.07
2022-12-23T13:59:58.416Z,4.06
2022-12-23T14:03:02.701Z,4.03
2022-12-23T14:05:41.103Z,4.10
2022-12-23T14:08:19.805Z,4.11
2022-12-23T14:11:00.870Z,4.09
2022-12-23T14:13:41.654Z,4.09
2022-12-23T14:16:39.854Z,4.01
2022-12-23T14:19:46.303Z,4.03
2022-12-23T14:22:41.579Z,4.07
2022-12-23T14:25:30.021Z,4.03
2022-12-23T14:28:31.724Z,3.98
2022-12-23T14:30:58.646Z,3.98
2022-12-23T14:33:31.394Z,3.94
2022-12-23T14:36:26.911Z,3.90
2022-12-23T14:39:12.050Z,3.90
2022-12-23T14:42:08.373Z,3.90
2022-12-23T14:44:37.742Z,3.82
2022-12-23T14:47:40.564Z,3.79
2022-12-23T14:50:44.806Z,3.82
2022-12-23T14:53:25.311Z,3.74
2022-12-23T14:56:10.466Z,3.73
2022-12-23T14:58:46.202Z,3.73
2022-12-23T15:01:25.513Z,3.72
2022-12-23T15:04:47.595Z,3.73
2022-12-23T15:08:14.543Z,3.78
2022-12-23T15:10:51.578Z,3.70
2022-12-23T15:13:19.735Z,3.68
2022-12-23T15:15:59.162Z,3.66
2022-12-23T15:18:28.604Z,3.68
2022-12-23T15:21:04.954Z,3.59
2022-12-23T15:23:34.043Z,3.54
2022-12-23T15:26:02.352Z,3.59
2022-12-23T15:28:41.002Z,3.58
2022-12-23T15:31:35.154Z,3.60
2022-12-23T15:34:14.857Z,3.58
2022-12-23T15:36:44.828Z,3.52
2022-12-23T15:39:20.374Z,3.54
2022-12-23T15:41:48.408Z,3.55
2022-12-23T15:44:23.042Z,3.50
2022-12-23T15:46:51.329Z,3.50
2022-12-23T15:49:20.433Z,3.48
2022-12-23T15:52:12.532Z,3.48
2022-12-23T15:54:53.201Z,3.45
2022-12-23T15:57:24.320Z,3.46
2022-12-23T15:59:51.310Z,3.45
2022-12-23T16:05:34.491Z,3.40
2022-12-23T16:08:23.191Z,3.44
2022-12-23T16:11:17.896Z,3.45
2022-12-23T16:13:59.457Z,3.44
2022-12-23T16:16:33.822Z,3.33
2022-12-23T16:19:00.570Z,3.31
2022-12-23T16:21:34.749Z,3.32
2022-12-23T16:24:06.493Z,3.37
2022-12-23T16:26:40.516Z,3.38
2022-12-23T16:29:10.271Z,3.30
2022-12-23T16:31:37.702Z,3.28
2022-12-23T16:34:07.995Z,3.19
2022-12-23T16:36:36.657Z,3.22
2022-12-23T16:39:06.996Z,3.16
2022-12-23T16:41:34.600Z,3.23
2022-12-23T16:44:01.342Z,3.23
2022-12-23T16:46:31.680Z,3.17
2022-12-23T16:49:00.952Z,3.15
2022-12-23T16:51:30.589Z,3.14
2022-12-23T16:54:00.499Z,3.16
2022-12-23T16:56:30.461Z,3.11
2022-12-23T16:58:57.131Z,3.02
2022-12-23T17:01:27.736Z,3.08
2022-12-23T17:03:55.993Z,2.96
2022-12-23T17:06:23.363Z,2.77
2022-12-23T17:09:11.999Z,2.74
2022-12-23T17:11:47.738Z,2.76
2022-12-23T17:14:30.207Z,2.69
2022-12-23T17:16:57.651Z,2.64
2022-12-23T17:19:28.972Z,2.57
2022-12-23T17:22:01.618Z,2.56
2022-12-23T17:24:44.565Z,2.49
2022-12-23T17:27:14.121Z,2.44
2022-12-23T17:29:44.844Z,2.42
2022-12-23T17:32:13.998Z,2.33
2022-12-23T17:35:01.459Z,2.27
2022-12-23T17:37:31.792Z,2.20
2022-12-23T17:40:07.316Z,2.15
2022-12-23T17:42:51.911Z,2.10
2022-12-23T17:45:43.393Z,2.06
2022-12-23T17:48:17.996Z,2.03
2022-12-23T17:50:47.863Z,1.92
2022-12-23T17:53:26.314Z,1.87
2022-12-23T17:55:52.955Z,1.83
2022-12-23T17:58:19.777Z,1.78
2022-12-23T18:00:47.078Z,1.76
2022-12-23T18:03:23.911Z,1.72
2022-12-23T18:06:01.749Z,1.74
2022-12-23T18:08:29.033Z,1.70
2022-12-23T18:11:03.082Z,1.64
2022-12-23T18:16:21.577Z,1.36
2022-12-23T18:18:48.361Z,1.32
2022-12-23T18:21:24.696Z,1.19
2022-12-23T18:23:53.417Z,1.14
2022-12-23T18:26:22.757Z,1.24
2022-12-23T18:28:51.381Z,1.21
2022-12-23T18:31:23.969Z,1.21
2022-12-23T18:33:51.798Z,1.20
2022-12-23T18:36:25.969Z,1.13
2022-12-23T18:38:57.358Z,1.13
2022-12-23T18:41:27.339Z,1.10
2022-12-23T18:43:54.458Z,1.14
2022-12-23T18:46:21.671Z,1.13
2022-12-23T18:48:48.673Z,1.02
2022-12-23T18:51:17.460Z,1.05
2022-12-23T18:53:45.773Z,0.98
2022-12-23T18:56:14.314Z,0.94
2022-12-23T18:58:41.101Z,0.89
2022-12-23T19:01:12.957Z,0.85
2022-12-23T19:03:40.289Z,0.91
2022-12-23T19:06:08.833Z,0.90
2022-12-23T19:08:37.304Z,0.92
2022-12-23T19:11:15.574Z,0.87
2022-12-23T19:13:42.290Z,0.82
2022-12-23T19:16:14.115Z,0.80
2022-12-23T19:18:41.055Z,0.73
2022-12-23T19:21:09.336Z,0.69
2022-12-23T19:23:36.275Z,0.73
2022-12-23T19:26:05.904Z,0.66
2022-12-23T19:28:33.692Z,0.51
2022-12-23T19:31:00.575Z,0.49
2022-12-23T19:33:27.304Z,0.47
2022-12-23T19:35:54.960Z,0.50
2022-12-23T19:38:21.683Z,0.51
2022-12-23T19:40:57.464Z,0.43
2022-12-23T19:43:24.128Z,0.43
2022-12-23T19:45:58.939Z,0.51
2022-12-23T19:48:26.267Z,0.49
2022-12-23T19:51:00.916Z,0.54
2022-12-23T19:53:28.539Z,0.59
2022-12-23T19:56:10.980Z,0.60
2022-12-23T19:58:40.154Z,0.62
2022-12-23T20:01:11.498Z,0.66
2022-12-23T20:03:38.470Z,0.62
2022-12-23T20:06:06.976Z,0.64
2022-12-23T20:08:34.689Z,0.59
2022-12-23T20:11:09.690Z,0.51
2022-12-23T20:13:36.822Z,0.47
2022-12-23T20:16:06.116Z,0.44
2022-12-23T20:18:33.123Z,0.43
2022-12-23T20:21:01.246Z,0.36
2022-12-23T20:23:28.734Z,0.32
2022-12-23T20:25:59.099Z,0.37
2022-12-23T20:28:26.235Z,0.45
2022-12-23T20:31:11.949Z,0.50
2022-12-23T20:33:40.196Z,0.51
2022-12-23T20:36:11.365Z,0.54
2022-12-23T20:38:39.252Z,0.52
2022-12-23T20:41:07.797Z,0.40
2022-12-23T20:43:34.850Z,0.42
2022-12-23T20:46:06.039Z,0.42
2022-12-23T20:48:34.544Z,0.30
2022-12-23T20:51:24.839Z,0.21
2022-12-23T20:53:54.005Z,0.15
2022-12-23T20:56:21.942Z,0.07
2022-12-23T20:58:54.904Z,0.06
2022-12-23T21:01:24.714Z,0.11
2022-12-23T21:03:52.069Z,0.08
2022-12-23T21:06:19.645Z,0.05
2022-12-23T21:08:46.740Z,-0.05
2022-12-23T21:11:16.428Z,-0.08
2022-12-23T21:13:46.195Z,-0.08
2022-12-23T21:16:18.157Z,-0.11
2022-12-23T21:18:50.885Z,-0.21
2022-12-23T21:21:17.867Z,-0.31
2022-12-23T21:23:44.989Z,-0.22
2022-12-23T21:26:15.141Z,-0.16
2022-12-23T21:28:43.627Z,-0.15
2022-12-23T21:31:10.567Z,-0.19
2022-12-23T21:33:39.814Z,-0.23
2022-12-23T21:36:07.833Z,-0.25
2022-12-23T21:38:37.548Z,-0.29
2022-12-23T21:41:07.601Z,-0.19
2022-12-23T21:43:34.488Z,-0.21
2022-12-23T21:46:04.265Z,-0.18
2022-12-23T21:48:32.959Z,-0.21
2022-12-23T21:51:20.260Z,-0.20
2022-12-23T21:53:49.448Z,-0.13
2022-12-23T21:56:19.148Z,-0.03
2022-12-23T21:58:46.385Z,0.07
2022-12-23T22:01:16.568Z,-0.09
2022-12-23T22:03:44.685Z,-0.10
2022-12-23T22:06:14.962Z,-0.03
2022-12-23T22:08:42.495Z,-0.11
2022-12-23T22:11:12.071Z,-0.14
2022-12-23T22:13:39.700Z,0.03
2022-12-23T22:16:10.881Z,0.11
2022-12-23T22:18:38.750Z,0.21
2022-12-23T22:21:11.845Z,0.28
2022-12-23T22:23:39.063Z,0.37
2022-12-23T22:26:07.210Z,0.34
2022-12-23T22:28:35.859Z,0.35
2022-12-23T22:31:21.147Z,0.40
2022-12-23T22:33:47.987Z,0.44
2022-12-23T22:36:18.059Z,0.41
2022-12-23T22:38:44.751Z,0.40
2022-12-23T22:41:11.627Z,0.40
2022-12-23T22:43:38.431Z,0.33
2022-12-23T22:46:05.621Z,0.27
2022-12-23T22:48:32.519Z,0.36
2022-12-23T22:51:03.211Z,0.34
2022-12-23T22:53:30.193Z,0.37
2022-12-23T22:55:59.080Z,0.36
2022-12-23T22:58:27.705Z,0.27
2022-12-23T23:00:54.546Z,0.20
2022-12-23T23:03:21.331Z,0.29
2022-12-23T23:06:07.039Z,0.14
2022-12-23T23:08:34.711Z,0.18
2022-12-23T23:11:03.369Z,0.26
2022-12-23T23:13:33.104Z,0.21
2022-12-23T23:15:59.989Z,0.26
2022-12-23T23:18:27.301Z,0.36
2022-12-23T23:20:59.922Z,0.31
2022-12-23T23:23:26.638Z,0.38
2022-12-23T23:25:53.344Z,0.40
2022-12-23T23:28:20.006Z,0.28
2022-12-23T23:30:47.112Z,0.37
2022-12-23T23:33:14.006Z,0.43
2022-12-23T23:35:40.729Z,0.55
2022-12-23T23:38:07.940Z,0.51
2022-12-23T23:40:34.603Z,0.52
2022-12-23T23:43:01.400Z,0.54
2022-12-23T23:45:28.067Z,0.61
2022-12-23T23:47:55.407Z,0.65
2022-12-23T23:50:22.023Z,0.70
2022-12-23T23:52:48.647Z,0.74
2022-12-23T23:55:15.304Z,0.77
2022-12-23T23:57:41.931Z,0.81
